Time;durP1;ratioP1;P1;durP2;ratioP2;P2;SDS_P1;SDS_P2;PMS_P1;PMS_P2;Temp;Humidity;BMP_temperature;BMP_pressure;BME280_temperature;BME280_humidity;BME280_pressure;Samples;Min_cycle;Max_cycle;Signal;HPM_P1;HPM_P2
2022/07/11 00:01:30;;;;;;;5.65;3.20;;;;;;;;;;4995732;28;20117;-79
2022/07/11 00:03:59;;;;;;;6.10;3.25;;;;;;;;;;4995755;28;20050;-79
2022/07/11 00:06:25;;;;;;;5.20;3.58;;;;;;;;;;4994717;28;20053;-78
2022/07/11 00:08:54;;;;;;;5.25;3.50;;;;;;;;;;4977051;28;20034;-78
2022/07/11 00:11:20;;;;;;;5.70;3.25;;;;;;;;;;4974275;28;20078;-78
2022/07/11 00:13:46;;;;;;;8.55;3.70;;;;;;;;;;4995501;28;20054;-78
2022/07/11 00:16:13;;;;;;;7.80;3.85;;;;;;;;;;4995524;28;20117;-78
2022/07/11 00:18:39;;;;;;;5.30;3.53;;;;;;;;;;4995117;28;20050;-78
2022/07/11 00:21:05;;;;;;;6.45;3.75;;;;;;;;;;4994243;28;20042;-78
2022/07/11 00:23:34;;;;;;;7.00;3.55;;;;;;;;;;4995158;28;20050;-78
2022/07/11 00:26:00;;;;;;;7.07;3.20;;;;;;;;;;4977275;28;20446;-78
2022/07/11 00:28:26;;;;;;;6.40;3.70;;;;;;;;;;4991702;28;20051;-78
2022/07/11 00:30:52;;;;;;;7.72;4.70;;;;;;;;;;4994909;28;20465;-79
2022/07/11 00:33:19;;;;;;;9.93;4.13;;;;;;;;;;4995127;28;20101;-78
2022/07/11 00:35:45;;;;;;;6.10;4.22;;;;;;;;;;4993754;28;20509;-79
2022/07/11 00:38:11;;;;;;;5.97;4.07;;;;;;;;;;4994113;28;20047;-78
2022/07/11 00:40:40;;;;;;;7.53;3.45;;;;;;;;;;4994684;28;20559;-78
2022/07/11 00:43:06;;;;;;;4.95;3.42;;;;;;;;;;4994940;28;20130;-79
2022/07/11 00:45:32;;;;;;;4.55;3.25;;;;;;;;;;4994574;28;20064;-78
2022/07/11 00:47:59;;;;;;;5.28;3.10;;;;;;;;;;4994016;28;20054;-79
2022/07/11 00:50:25;;;;;;;4.68;3.53;;;;;;;;;;4984945;28;20105;-77
2022/07/11 00:52:58;;;;;;;10.00;4.85;;;;;;;;;;4993163;28;20054;-80
2022/07/11 00:55:28;;;;;;;5.43;3.35;;;;;;;;;;4994533;28;20100;-78
2022/07/11 00:57:54;;;;;;;6.03;3.47;;;;;;;;;;4994307;28;20054;-78
2022/07/11 01:00:20;;;;;;;4.93;3.50;;;;;;;;;;4994443;28;20510;-79
2022/07/11 01:02:48;;;;;;;4.55;3.17;;;;;;;;;;4994452;28;20053;-78
2022/07/11 01:05:14;;;;;;;7.40;4.15;;;;;;;;;;4993462;28;20402;-79
2022/07/11 01:07:46;;;;;;;6.63;4.20;;;;;;;;;;4993340;28;20508;-78
2022/07/11 01:10:15;;;;;;;6.18;3.50;;;;;;;;;;4993698;28;20399;-79
2022/07/11 01:12:41;;;;;;;6.40;3.38;;;;;;;;;;4994318;28;20087;-78
2022/07/11 01:15:10;;;;;;;6.50;3.75;;;;;;;;;;4994269;28;20042;-78
2022/07/11 01:17:36;;;;;;;7.97;3.70;;;;;;;;;;4993943;28;20367;-79
2022/07/11 01:20:02;;;;;;;5.32;4.20;;;;;;;;;;4992911;28;20390;-78
2022/07/11 01:22:33;;;;;;;6.93;4.50;;;;;;;;;;4993680;28;20076;-79
2022/07/11 01:25:02;;;;;;;8.70;5.00;;;;;;;;;;4994226;28;20152;-79
2022/07/11 01:27:35;;;;;;;7.32;4.90;;;;;;;;;;4993950;28;20105;-79
2022/07/11 01:30:01;;;;;;;10.02;5.30;;;;;;;;;;4993526;28;20064;-79
2022/07/11 01:32:33;;;;;;;6.88;5.28;;;;;;;;;;4993856;28;20191;-80
2022/07/11 01:34:59;;;;;;;8.10;5.35;;;;;;;;;;4993222;28;20533;-77
2022/07/11 01:37:26;;;;;;;8.25;5.15;;;;;;;;;;4993661;28;20064;-78
2022/07/11 01:39:52;;;;;;;8.35;5.63;;;;;;;;;;4993919;28;20089;-79
2022/07/11 01:42:21;;;;;;;6.93;5.03;;;;;;;;;;4976398;28;20089;-78
2022/07/11 01:44:47;;;;;;;6.93;5.10;;;;;;;;;;4992841;28;20057;-77
2022/07/11 01:47:16;;;;;;;9.30;5.20;;;;;;;;;;4992501;28;20446;-78
2022/07/11 01:49:42;;;;;;;8.35;5.28;;;;;;;;;;4992421;28;20524;-78
2022/07/11 01:52:08;;;;;;;6.43;4.05;;;;;;;;;;4992625;28;20078;-78
2022/07/11 01:54:34;;;;;;;6.35;3.95;;;;;;;;;;4992905;28;20069;-79
2022/07/11 01:57:03;;;;;;;5.88;3.50;;;;;;;;;;4992782;28;20395;-78
2022/07/11 01:59:29;;;;;;;5.82;3.33;;;;;;;;;;4992048;28;20049;-78
2022/07/11 02:01:55;;;;;;;4.35;3.17;;;;;;;;;;4992587;28;20042;-79
2022/07/11 02:04:21;;;;;;;5.20;3.30;;;;;;;;;;4974125;28;20112;-79
2022/07/11 02:06:47;;;;;;;7.05;3.65;;;;;;;;;;4974678;28;20046;-79
2022/07/11 02:09:13;;;;;;;4.90;3.60;;;;;;;;;;4991794;28;20054;-79
2022/07/11 02:11:40;;;;;;;4.20;3.17;;;;;;;;;;4992321;28;20038;-79
2022/07/11 02:14:06;;;;;;;5.05;3.20;;;;;;;;;;4974110;28;20050;-79
2022/07/11 02:16:35;;;;;;;5.88;3.28;;;;;;;;;;4991566;28;20098;-79
2022/07/11 02:19:01;;;;;;;4.07;2.80;;;;;;;;;;4991200;28;20046;-78
2022/07/11 02:21:27;;;;;;;5.40;2.60;;;;;;;;;;4975213;28;20181;-78
2022/07/11 02:23:53;;;;;;;4.28;2.80;;;;;;;;;;4974819;28;20489;-78
2022/07/11 02:26:19;;;;;;;6.35;2.80;;;;;;;;;;4992318;28;20049;-78
2022/07/11 02:28:46;;;;;;;5.47;3.05;;;;;;;;;;4974729;28;20530;-79
2022/07/11 02:31:15;;;;;;;3.53;2.70;;;;;;;;;;4974336;28;20050;-79
2022/07/11 02:33:47;;;;;;;6.75;3.17;;;;;;;;;;4991823;28;20050;-79
2022/07/11 02:36:16;;;;;;;5.43;2.65;;;;;;;;;;4974956;28;20046;-78
2022/07/11 02:38:42;;;;;;;3.55;2.92;;;;;;;;;;4992247;28;20050;-78
2022/07/11 02:41:12;;;;;;;4.82;2.95;;;;;;;;;;4958832;28;20054;-79
2022/07/11 02:43:38;;;;;;;4.45;3.03;;;;;;;;;;4990868;28;20467;-79
2022/07/11 02:46:05;;;;;;;5.50;3.00;;;;;;;;;;4920766;28;1085439;-78
2022/07/11 02:48:31;;;;;;;5.22;2.83;;;;;;;;;;4994654;28;20046;-79
2022/07/11 02:50:57;;;;;;;6.05;3.10;;;;;;;;;;4996867;28;20038;-78
2022/07/11 02:53:24;;;;;;;5.43;2.92;;;;;;;;;;4996816;28;20042;-78
2022/07/11 02:55:50;;;;;;;3.97;2.58;;;;;;;;;;4996797;28;20054;-78
2022/07/11 02:58:16;;;;;;;4.65;2.88;;;;;;;;;;4995932;28;20038;-79
2022/07/11 03:00:45;;;;;;;5.05;2.67;;;;;;;;;;4963235;28;20528;-78
2022/07/11 03:03:11;;;;;;;3.08;2.30;;;;;;;;;;4996487;28;20125;-79
2022/07/11 03:05:37;;;;;;;3.38;2.50;;;;;;;;;;4978835;28;20046;-79
2022/07/11 03:08:03;;;;;;;4.72;2.25;;;;;;;;;;4979013;28;20112;-79
2022/07/11 03:10:32;;;;;;;4.70;3.13;;;;;;;;;;4996434;28;20113;-79
2022/07/11 03:12:58;;;;;;;4.68;2.38;;;;;;;;;;4996036;28;20133;-79
2022/07/11 03:15:28;;;;;;;3.05;2.10;;;;;;;;;;4996499;28;20465;-79
2022/07/11 03:17:54;;;;;;;4.00;2.10;;;;;;;;;;4995790;28;20389;-79
2022/07/11 03:20:20;;;;;;;4.78;2.40;;;;;;;;;;4978352;28;20038;-79
2022/07/11 03:22:46;;;;;;;2.80;1.90;;;;;;;;;;4978797;28;20042;-79
2022/07/11 03:25:12;;;;;;;2.97;2.13;;;;;;;;;;4995816;28;20046;-78
2022/07/11 03:27:38;;;;;;;3.05;1.92;;;;;;;;;;4995805;28;20096;-79
2022/07/11 03:30:04;;;;;;;4.20;2.15;;;;;;;;;;4995916;28;20107;-78
2022/07/11 03:32:30;;;;;;;3.92;2.05;;;;;;;;;;4995920;28;20449;-79
2022/07/11 03:37:41;;;;;;;3.10;2.00;;;;;;;;;;4995922;28;20058;-78
2022/07/11 03:40:08;;;;;;;3.38;2.13;;;;;;;;;;4996002;28;20121;-79
2022/07/11 03:42:34;;;;;;;3.20;2.10;;;;;;;;;;4995465;28;20045;-78
2022/07/11 03:45:02;;;;;;;4.75;1.95;;;;;;;;;;4995692;28;20099;-78
2022/07/11 03:47:36;;;;;;;3.97;2.08;;;;;;;;;;4977585;28;20054;-78
2022/07/11 03:50:05;;;;;;;4.82;2.20;;;;;;;;;;4978107;28;20121;-78
2022/07/11 03:52:32;;;;;;;3.80;2.05;;;;;;;;;;4995798;28;20058;-78
2022/07/11 03:54:58;;;;;;;3.10;1.65;;;;;;;;;;4978315;28;20050;-79
2022/07/11 03:57:24;;;;;;;3.35;1.60;;;;;;;;;;4995254;28;20049;-79
2022/07/11 03:59:50;;;;;;;3.53;1.70;;;;;;;;;;4995040;28;20410;-79
2022/07/11 04:02:16;;;;;;;1.98;1.48;;;;;;;;;;4961868;28;20042;-77
2022/07/11 04:04:42;;;;;;;3.03;1.75;;;;;;;;;;4995734;28;20492;-78
2022/07/11 04:07:08;;;;;;;3.03;1.80;;;;;;;;;;4995651;28;20050;-79
2022/07/11 04:09:34;;;;;;;5.60;4.32;;;;;;;;;;4977920;28;20470;-79
2022/07/11 04:12:00;;;;;;;5.20;1.85;;;;;;;;;;4994465;28;20085;-78
2022/07/11 04:14:26;;;;;;;2.45;1.70;;;;;;;;;;4978026;28;20133;-78
2022/07/11 04:16:52;;;;;;;2.67;1.90;;;;;;;;;;4993846;28;20153;-79
2022/07/11 04:19:18;;;;;;;3.08;1.70;;;;;;;;;;4994980;28;20049;-78
2022/07/11 04:21:47;;;;;;;3.13;1.70;;;;;;;;;;4995345;28;20089;-78
2022/07/11 04:24:13;;;;;;;2.42;1.80;;;;;;;;;;4995208;28;20072;-79
2022/07/11 04:26:40;;;;;;;2.78;1.65;;;;;;;;;;4994110;28;20058;-79
2022/07/11 04:29:09;;;;;;;3.28;1.85;;;;;;;;;;4977563;28;20125;-79
2022/07/11 04:31:35;;;;;;;2.97;2.00;;;;;;;;;;4994269;28;20134;-78
2022/07/11 04:34:01;;;;;;;2.15;1.90;;;;;;;;;;4994642;28;20117;-79
2022/07/11 04:36:27;;;;;;;2.05;1.55;;;;;;;;;;4977760;28;20046;-79
2022/07/11 04:38:55;;;;;;;3.80;1.80;;;;;;;;;;4994864;28;20046;-78
2022/07/11 04:41:21;;;;;;;3.45;1.55;;;;;;;;;;4994324;28;20066;-78
2022/07/11 04:43:47;;;;;;;2.13;1.90;;;;;;;;;;4994819;28;20046;-79
2022/07/11 04:46:14;;;;;;;3.28;1.77;;;;;;;;;;4993651;28;20054;-79
2022/07/11 04:48:40;;;;;;;3.58;2.08;;;;;;;;;;4994166;28;20050;-79
2022/07/11 04:51:06;;;;;;;2.70;1.88;;;;;;;;;;4994853;28;20042;-79
2022/07/11 04:53:33;;;;;;;2.85;1.90;;;;;;;;;;4994531;28;20046;-79
2022/07/11 04:56:02;;;;;;;4.15;2.00;;;;;;;;;;4992985;28;20418;-79
2022/07/11 04:58:32;;;;;;;2.83;1.92;;;;;;;;;;4994583;28;20046;-78
2022/07/11 05:00:58;;;;;;;4.78;2.17;;;;;;;;;;4992965;28;20047;-80
2022/07/11 05:03:24;;;;;;;3.45;1.88;;;;;;;;;;4976363;28;20038;-78
2022/07/11 05:05:53;;;;;;;3.33;1.70;;;;;;;;;;4977009;28;20078;-78
2022/07/11 05:08:19;;;;;;;2.35;1.40;;;;;;;;;;4993086;28;20412;-79
2022/07/11 05:10:45;;;;;;;2.25;1.27;;;;;;;;;;4993520;28;20050;-78
2022/07/11 05:13:14;;;;;;;3.95;1.40;;;;;;;;;;4994392;28;20549;-78
2022/07/11 05:15:40;;;;;;;4.57;1.98;;;;;;;;;;4994155;28;20045;-78
2022/07/11 05:18:06;;;;;;;3.60;1.27;;;;;;;;;;4992514;28;20046;-79
2022/07/11 05:20:32;;;;;;;1.92;1.30;;;;;;;;;;4977003;28;20498;-78
2022/07/11 05:22:59;;;;;;;2.55;1.30;;;;;;;;;;4993454;28;20053;-78
2022/07/11 05:25:25;;;;;;;3.60;1.38;;;;;;;;;;4976848;28;20054;-78
2022/07/11 05:27:53;;;;;;;1.52;1.40;;;;;;;;;;4994580;28;20049;-79
2022/07/11 05:30:20;;;;;;;3.30;1.48;;;;;;;;;;4993853;28;20045;-79
2022/07/11 05:32:46;;;;;;;1.77;1.30;;;;;;;;;;4993437;28;20044;-78
2022/07/11 05:35:12;;;;;;;2.13;1.40;;;;;;;;;;4976652;28;20053;-78
2022/07/11 05:37:38;;;;;;;4.55;1.48;;;;;;;;;;4976699;28;20074;-78
2022/07/11 05:40:04;;;;;;;2.60;1.38;;;;;;;;;;4974461;28;20101;-78
2022/07/11 05:42:31;;;;;;;1.85;1.10;;;;;;;;;;4941221;28;20101;-78
2022/07/11 05:45:01;;;;;;;2.38;1.35;;;;;;;;;;4989824;28;20125;-80
2022/07/11 05:47:27;;;;;;;2.80;1.30;;;;;;;;;;4992947;28;20053;-82
2022/07/11 05:49:53;;;;;;;2.00;1.30;;;;;;;;;;4993675;28;20383;-78
2022/07/11 05:52:19;;;;;;;3.05;1.00;;;;;;;;;;4993195;28;20537;-79
2022/07/11 05:54:45;;;;;;;4.38;1.40;;;;;;;;;;4976179;28;20126;-82
2022/07/11 05:57:11;;;;;;;2.95;1.30;;;;;;;;;;4990887;28;20078;-79
2022/07/11 05:59:38;;;;;;;2.45;1.10;;;;;;;;;;4993615;28;20065;-78
2022/07/11 06:02:10;;;;;;;1.55;1.20;;;;;;;;;;4992442;28;20042;-78
2022/07/11 06:04:39;;;;;;;1.50;1.13;;;;;;;;;;4975979;28;20035;-78
2022/07/11 06:07:05;;;;;;;4.38;1.17;;;;;;;;;;4993431;28;20058;-78
2022/07/11 06:09:32;;;;;;;2.05;1.40;;;;;;;;;;4987825;28;20208;-78
2022/07/11 06:11:58;;;;;;;1.83;1.27;;;;;;;;;;4991307;28;20042;-78
2022/07/11 06:14:27;;;;;;;2.78;1.48;;;;;;;;;;4986469;28;20053;-78
2022/07/11 06:16:53;;;;;;;0.98;0.90;;;;;;;;;;4975253;28;20062;-76
2022/07/11 06:19:19;;;;;;;1.60;1.25;;;;;;;;;;4992491;28;20045;-77
2022/07/11 06:21:45;;;;;;;1.95;1.20;;;;;;;;;;4971779;28;20046;-77
2022/07/11 06:24:11;;;;;;;0.93;0.82;;;;;;;;;;4991839;28;20043;-79
2022/07/11 06:26:38;;;;;;;2.40;1.30;;;;;;;;;;4992258;28;20042;-78
2022/07/11 06:29:04;;;;;;;1.98;0.98;;;;;;;;;;4991835;28;20081;-78
2022/07/11 06:31:33;;;;;;;1.50;1.10;;;;;;;;;;4993138;28;20129;-78
2022/07/11 06:33:59;;;;;;;1.50;1.13;;;;;;;;;;4992209;28;20782;-78
2022/07/11 06:36:25;;;;;;;1.20;0.70;;;;;;;;;;4992448;28;20474;-78
2022/07/11 06:38:52;;;;;;;1.75;1.00;;;;;;;;;;4990762;28;20097;-78
2022/07/11 06:41:18;;;;;;;0.82;0.82;;;;;;;;;;4993094;28;20125;-78
2022/07/11 06:43:47;;;;;;;2.35;0.98;;;;;;;;;;4988513;28;20094;-80
2022/07/11 06:46:23;;;;;;;2.38;1.10;;;;;;;;;;4986599;28;20470;-79
2022/07/11 06:48:49;;;;;;;5.00;1.25;;;;;;;;;;4976207;28;20129;-79
2022/07/11 06:51:15;;;;;;;1.55;1.15;;;;;;;;;;4993130;28;20118;-80
2022/07/11 06:53:41;;;;;;;2.45;1.20;;;;;;;;;;4992778;28;20042;-79
2022/07/11 06:56:07;;;;;;;3.03;1.23;;;;;;;;;;4976030;28;20042;-78
2022/07/11 06:58:33;;;;;;;1.05;0.90;;;;;;;;;;4993178;28;20056;-78
2022/07/11 07:01:03;;;;;;;2.92;0.93;;;;;;;;;;4992907;28;20053;-78
2022/07/11 07:03:30;;;;;;;0.77;0.75;;;;;;;;;;4989999;28;20378;-78
2022/07/11 07:05:57;;;;;;;1.63;1.00;;;;;;;;;;4967193;28;20046;-83
2022/07/11 07:08:26;;;;;;;1.02;0.93;;;;;;;;;;4974158;28;20038;-78
2022/07/11 07:10:53;;;;;;;1.08;1.02;;;;;;;;;;4991058;28;20138;-78
2022/07/11 07:13:23;;;;;;;1.90;0.90;;;;;;;;;;4991472;28;20100;-78
2022/07/11 07:15:49;;;;;;;1.55;0.98;;;;;;;;;;4974719;28;20466;-79
2022/07/11 07:18:15;;;;;;;2.65;0.98;;;;;;;;;;4991525;28;20089;-77
2022/07/11 07:20:44;;;;;;;0.95;0.90;;;;;;;;;;4974617;28;20046;-77
2022/07/11 07:23:10;;;;;;;0.82;0.82;;;;;;;;;;4975013;28;20055;-77
2022/07/11 07:25:37;;;;;;;2.47;1.30;;;;;;;;;;4992174;28;20100;-82
2022/07/11 07:28:03;;;;;;;1.52;0.80;;;;;;;;;;4989974;28;20054;-82
2022/07/11 07:30:29;;;;;;;1.25;0.90;;;;;;;;;;4976237;28;20101;-81
2022/07/11 07:32:55;;;;;;;1.10;1.00;;;;;;;;;;4994824;28;20402;-75
2022/07/11 07:35:22;;;;;;;1.48;0.95;;;;;;;;;;4977074;28;20062;-76
2022/07/11 07:37:48;;;;;;;1.95;0.77;;;;;;;;;;4995186;28;20038;-76
2022/07/11 07:40:14;;;;;;;1.55;0.98;;;;;;;;;;4977515;28;20482;-76
2022/07/11 07:42:42;;;;;;;1.67;1.00;;;;;;;;;;4997066;28;20042;-76
2022/07/11 07:45:09;;;;;;;0.90;0.85;;;;;;;;;;4995461;28;20045;-76
2022/07/11 07:47:36;;;;;;;1.50;0.77;;;;;;;;;;4980175;28;20046;-75
2022/07/11 07:50:04;;;;;;;1.05;0.70;;;;;;;;;;4997499;28;20375;-76
2022/07/11 07:52:30;;;;;;;0.98;0.60;;;;;;;;;;4994465;28;20038;-76
2022/07/11 07:54:56;;;;;;;0.52;0.52;;;;;;;;;;4961842;28;20057;-75
2022/07/11 07:57:22;;;;;;;1.42;0.80;;;;;;;;;;4992077;28;20394;-76
2022/07/11 07:59:48;;;;;;;0.68;0.68;;;;;;;;;;4991411;28;20042;-76
2022/07/11 08:02:15;;;;;;;1.75;1.10;;;;;;;;;;4976849;28;20042;-76
2022/07/11 08:04:41;;;;;;;0.57;0.55;;;;;;;;;;4979873;28;20046;-74
2022/07/11 08:07:07;;;;;;;1.65;0.80;;;;;;;;;;4975775;28;20156;-74
2022/07/11 08:09:34;;;;;;;1.38;1.08;;;;;;;;;;4975226;28;20052;-75
2022/07/11 08:12:00;;;;;;;1.88;0.88;;;;;;;;;;4991235;28;20512;-74
2022/07/11 08:14:35;;;;;;;2.20;1.10;;;;;;;;;;4978438;28;20047;-75
2022/07/11 08:17:01;;;;;;;1.38;0.80;;;;;;;;;;4989807;28;20461;-74
2022/07/11 08:19:28;;;;;;;2.13;1.65;;;;;;;;;;4987705;28;20046;-75
2022/07/11 08:21:54;;;;;;;0.75;0.75;;;;;;;;;;4978417;28;20117;-75
2022/07/11 08:24:20;;;;;;;2.53;1.10;;;;;;;;;;4990673;28;20058;-74
2022/07/11 08:26:46;;;;;;;0.88;0.80;;;;;;;;;;4993977;28;20125;-76
2022/07/11 08:29:12;;;;;;;2.05;1.20;;;;;;;;;;4994851;28;20126;-75
2022/07/11 08:31:40;;;;;;;1.15;0.82;;;;;;;;;;4997600;28;20121;-75
2022/07/11 08:34:10;;;;;;;1.50;0.60;;;;;;;;;;4995822;28;20482;-76
2022/07/11 08:36:36;;;;;;;1.67;0.95;;;;;;;;;;4997176;28;20069;-76
2022/07/11 08:39:03;;;;;;;0.75;0.70;;;;;;;;;;4995034;28;20549;-75
2022/07/11 08:41:29;;;;;;;0.80;0.63;;;;;;;;;;4996405;28;20042;-74
2022/07/11 08:43:55;;;;;;;1.55;0.82;;;;;;;;;;4974935;28;20393;-75
2022/07/11 08:46:21;;;;;;;1.27;0.80;;;;;;;;;;4995365;28;20145;-76
2022/07/11 08:48:48;;;;;;;1.80;1.00;;;;;;;;;;4994795;28;20046;-81
2022/07/11 08:51:14;;;;;;;1.25;0.95;;;;;;;;;;4992076;28;20049;-79
2022/07/11 08:53:46;;;;;;;1.10;1.00;;;;;;;;;;4994700;28;20129;-76
2022/07/11 08:56:20;;;;;;;1.30;1.05;;;;;;;;;;4991786;28;20062;-78
2022/07/11 08:58:47;;;;;;;1.38;1.20;;;;;;;;;;4973872;28;20046;-77
2022/07/11 09:01:17;;;;;;;1.08;0.80;;;;;;;;;;4962985;28;20050;-76
2022/07/11 09:03:44;;;;;;;1.23;0.95;;;;;;;;;;4996701;28;20042;-76
2022/07/11 09:06:11;;;;;;;0.50;0.50;;;;;;;;;;4993865;28;20050;-79
2022/07/11 09:08:37;;;;;;;0.60;0.60;;;;;;;;;;4978271;28;20085;-76
2022/07/11 09:11:04;;;;;;;1.50;0.85;;;;;;;;;;4995802;28;20045;-76
2022/07/11 09:13:30;;;;;;;0.60;0.60;;;;;;;;;;4993232;28;20050;-75
2022/07/11 09:16:07;;;;;;;0.60;0.60;;;;;;;;;;4997160;28;20057;-76
2022/07/11 09:18:40;;;;;;;0.50;0.50;;;;;;;;;;4962210;28;20146;-83
2022/07/11 09:26:43;;;;;;;0.60;0.60;;;;;;;;;;4996898;28;20046;-76
2022/07/11 09:29:13;;;;;;;0.80;0.70;;;;;;;;;;4958058;28;20046;-75
2022/07/11 09:31:40;;;;;;;0.73;0.63;;;;;;;;;;4963054;28;20046;-75
2022/07/11 09:34:08;;;;;;;1.35;0.80;;;;;;;;;;4978807;28;20567;-75
2022/07/11 09:36:37;;;;;;;1.10;0.82;;;;;;;;;;4996722;28;20165;-75
2022/07/11 09:39:07;;;;;;;3.00;0.90;;;;;;;;;;5002462;28;20046;-75
2022/07/11 09:41:34;;;;;;;2.00;1.00;;;;;;;;;;4986382;28;20124;-77
2022/07/11 09:44:32;;;;;;;0.80;0.80;;;;;;;;;;4993245;28;20049;-77
2022/07/11 09:47:01;;;;;;;1.00;0.95;;;;;;;;;;4965992;28;20054;-76
2022/07/11 09:49:30;;;;;;;1.45;1.05;;;;;;;;;;5000350;28;20379;-77
2022/07/11 09:52:06;;;;;;;1.65;1.30;;;;;;;;;;4999334;28;20053;-76
2022/07/11 09:54:32;;;;;;;2.67;1.00;;;;;;;;;;4997694;28;20046;-76
2022/07/11 09:56:58;;;;;;;1.23;0.80;;;;;;;;;;4994032;28;20082;-79
2022/07/11 09:59:24;;;;;;;1.17;0.88;;;;;;;;;;4988783;28;20043;-77
2022/07/11 10:01:50;;;;;;;1.48;0.65;;;;;;;;;;4988502;28;20074;-78
2022/07/11 10:04:16;;;;;;;0.63;0.63;;;;;;;;;;4987357;28;20509;-76
2022/07/11 10:06:42;;;;;;;2.00;0.55;;;;;;;;;;4988869;28;20481;-75
2022/07/11 10:09:08;;;;;;;2.22;0.90;;;;;;;;;;4992393;28;20066;-76
2022/07/11 10:11:35;;;;;;;0.98;0.80;;;;;;;;;;4998979;28;20074;-76
2022/07/11 10:14:04;;;;;;;1.17;0.80;;;;;;;;;;5000055;28;20054;-77
2022/07/11 10:16:37;;;;;;;1.08;0.90;;;;;;;;;;4982748;28;20077;-76
2022/07/11 10:19:09;;;;;;;2.03;1.00;;;;;;;;;;4995906;28;20092;-76
2022/07/11 10:21:45;;;;;;;2.13;0.93;;;;;;;;;;4979557;28;20042;-75
2022/07/11 10:24:29;;;;;;;1.27;0.98;;;;;;;;;;4980180;28;20156;-76
2022/07/11 10:27:00;;;;;;;1.20;1.10;;;;;;;;;;4995085;28;20039;-76
2022/07/11 10:29:35;;;;;;;1.30;1.08;;;;;;;;;;4994535;28;20081;-76
2022/07/11 10:32:06;;;;;;;0.85;0.82;;;;;;;;;;4980903;28;20050;-76
2022/07/11 10:34:35;;;;;;;1.10;1.10;;;;;;;;;;4981661;28;20038;-76
2022/07/11 10:37:05;;;;;;;2.40;1.30;;;;;;;;;;5001149;28;20042;-76
2022/07/11 10:39:32;;;;;;;1.08;1.00;;;;;;;;;;4998472;28;20125;-76
2022/07/11 10:42:03;;;;;;;2.20;1.33;;;;;;;;;;4998585;28;20050;-77
2022/07/11 10:44:47;;;;;;;1.40;0.98;;;;;;;;;;4994295;28;20089;-80
2022/07/11 10:47:35;;;;;;;1.50;1.40;;;;;;;;;;4992810;28;20050;-76
2022/07/11 10:50:07;;;;;;;1.00;1.00;;;;;;;;;;4976947;28;20054;-77
2022/07/11 10:52:43;;;;;;;1.50;1.13;;;;;;;;;;4976188;28;20073;-77
2022/07/11 10:55:32;;;;;;;2.72;1.60;;;;;;;;;;4989883;28;20042;-77
2022/07/11 10:58:01;;;;;;;1.80;1.50;;;;;;;;;;4994337;28;20140;-76
2022/07/11 11:00:29;;;;;;;1.30;1.20;;;;;;;;;;4990729;28;20069;-76
2022/07/11 11:03:04;;;;;;;1.42;1.30;;;;;;;;;;4992468;28;20058;-77
2022/07/11 11:05:47;;;;;;;1.88;1.30;;;;;;;;;;4990869;28;20046;-77
2022/07/11 11:08:35;;;;;;;1.40;1.30;;;;;;;;;;4982715;28;20129;-77
2022/07/11 11:11:02;;;;;;;1.75;1.33;;;;;;;;;;4994790;28;20042;-76
2022/07/11 11:13:28;;;;;;;1.77;1.67;;;;;;;;;;4997060;28;20482;-77
2022/07/11 11:16:17;;;;;;;5.47;1.90;;;;;;;;;;4993671;28;20049;-77
2022/07/11 11:18:43;;;;;;;1.77;1.20;;;;;;;;;;4972517;28;20185;-75
2022/07/11 11:21:09;;;;;;;2.10;1.05;;;;;;;;;;4997811;28;20038;-76
2022/07/11 11:24:00;;;;;;;1.10;1.00;;;;;;;;;;4995085;28;20054;-76
2022/07/11 11:26:46;;;;;;;1.25;1.05;;;;;;;;;;4979084;28;20405;-76
2022/07/11 11:29:17;;;;;;;1.15;1.05;;;;;;;;;;4981048;28;20393;-76
2022/07/11 11:31:48;;;;;;;0.90;0.90;;;;;;;;;;4996591;28;20043;-75
2022/07/11 11:34:14;;;;;;;0.93;0.93;;;;;;;;;;4972459;28;20051;-76
2022/07/11 11:36:41;;;;;;;1.17;0.90;;;;;;;;;;4996734;28;20050;-76
2022/07/11 11:39:08;;;;;;;1.85;1.20;;;;;;;;;;4977955;28;20101;-76
2022/07/11 11:41:34;;;;;;;1.38;1.27;;;;;;;;;;4992385;28;20572;-75
2022/07/11 11:44:01;;;;;;;1.95;1.30;;;;;;;;;;4996553;28;20038;-76
2022/07/11 11:46:28;;;;;;;2.03;1.40;;;;;;;;;;4995653;28;20561;-75
2022/07/11 11:48:58;;;;;;;1.55;1.20;;;;;;;;;;4993901;28;20042;-76
2022/07/11 11:51:27;;;;;;;1.40;1.30;;;;;;;;;;4993490;28;20074;-76
2022/07/11 11:53:54;;;;;;;1.48;1.38;;;;;;;;;;4976386;28;20050;-75
2022/07/11 11:56:28;;;;;;;1.20;1.20;;;;;;;;;;4992782;28;20046;-75
2022/07/11 11:58:59;;;;;;;1.42;1.33;;;;;;;;;;4992944;28;20042;-76
2022/07/11 12:01:27;;;;;;;2.63;1.40;;;;;;;;;;4991106;28;20051;-76
2022/07/11 12:03:54;;;;;;;1.45;1.30;;;;;;;;;;4974477;28;20089;-75
2022/07/11 12:06:28;;;;;;;1.95;1.30;;;;;;;;;;4974682;28;20046;-76
2022/07/11 12:09:01;;;;;;;1.27;1.20;;;;;;;;;;4975723;28;20406;-76
2022/07/11 12:11:30;;;;;;;1.50;1.40;;;;;;;;;;4992568;28;20042;-76
2022/07/11 12:13:57;;;;;;;2.42;1.70;;;;;;;;;;4977864;28;20052;-77
2022/07/11 12:16:39;;;;;;;1.90;1.70;;;;;;;;;;4994659;28;20082;-75
2022/07/11 12:19:09;;;;;;;1.90;1.60;;;;;;;;;;4958979;28;20043;-77
2022/07/11 12:21:38;;;;;;;1.70;1.60;;;;;;;;;;4976340;28;20050;-76
2022/07/11 12:24:09;;;;;;;2.13;1.60;;;;;;;;;;4963160;28;20413;-76
2022/07/11 12:26:37;;;;;;;1.60;1.50;;;;;;;;;;4985412;28;20405;-75
2022/07/11 12:29:05;;;;;;;1.60;1.50;;;;;;;;;;4994600;28;20490;-76
2022/07/11 12:31:44;;;;;;;1.90;1.55;;;;;;;;;;4977989;28;20089;-75
2022/07/11 12:34:10;;;;;;;1.60;1.50;;;;;;;;;;4978465;28;20121;-76
2022/07/11 12:36:37;;;;;;;1.55;1.45;;;;;;;;;;4977436;28;20054;-75
2022/07/11 12:39:04;;;;;;;1.50;1.40;;;;;;;;;;4995198;28;20079;-76
2022/07/11 12:41:30;;;;;;;1.60;1.50;;;;;;;;;;4996841;28;20104;-76
2022/07/11 12:46:42;;;;;;;1.70;1.60;;;;;;;;;;5001324;28;20088;-80
2022/07/11 12:49:12;;;;;;;3.33;1.63;;;;;;;;;;5007520;28;20378;-78
2022/07/11 12:51:40;;;;;;;1.95;1.60;;;;;;;;;;4983751;28;20038;-75
2022/07/11 12:54:09;;;;;;;2.20;1.70;;;;;;;;;;5011411;28;20053;-74
2022/07/11 12:56:39;;;;;;;1.60;1.50;;;;;;;;;;5011682;28;20047;-76
2022/07/11 12:59:05;;;;;;;1.55;1.45;;;;;;;;;;5011500;28;20042;-75
2022/07/11 13:01:32;;;;;;;1.60;1.20;;;;;;;;;;4991497;28;20233;-75
2022/07/11 13:03:59;;;;;;;1.92;1.70;;;;;;;;;;5008012;28;20039;-74
2022/07/11 13:09:10;;;;;;;1.70;1.60;;;;;;;;;;5006823;28;20043;-76
2022/07/11 13:11:36;;;;;;;1.60;1.50;;;;;;;;;;4994871;28;20054;-75
2022/07/11 13:15:08;;;;;;;1.55;1.45;;;;;;;;;;4999067;28;20048;-75
2022/07/11 13:16:54;;;;;;;2.17;1.63;;;;;;;;;;5001767;28;20445;-75
2022/07/11 13:19:20;;;;;;;1.90;1.70;;;;;;;;;;4988961;28;20399;-76
2022/07/11 13:21:46;;;;;;;2.95;1.80;;;;;;;;;;4979017;28;20054;-76
2022/07/11 13:24:12;;;;;;;1.80;1.70;;;;;;;;;;4983700;28;20061;-75
2022/07/11 13:26:38;;;;;;;1.98;1.80;;;;;;;;;;4998592;28;20050;-76
2022/07/11 13:29:04;;;;;;;1.90;1.80;;;;;;;;;;4983525;28;20042;-76
2022/07/11 13:31:30;;;;;;;3.63;1.90;;;;;;;;;;5000402;28;20053;-76
2022/07/11 13:33:56;;;;;;;2.72;1.90;;;;;;;;;;4996531;28;20092;-76
2022/07/11 13:36:22;;;;;;;1.55;1.45;;;;;;;;;;4996563;28;20042;-75
2022/07/11 13:38:49;;;;;;;2.10;1.42;;;;;;;;;;5000857;28;20145;-76
2022/07/11 13:41:16;;;;;;;2.40;1.60;;;;;;;;;;4984684;28;20406;-76
2022/07/11 13:43:42;;;;;;;1.52;1.42;;;;;;;;;;5001682;28;20042;-76
2022/07/11 13:46:09;;;;;;;2.40;1.77;;;;;;;;;;4983492;28;20046;-76
2022/07/11 13:48:35;;;;;;;2.00;1.80;;;;;;;;;;5000740;28;20081;-75
2022/07/11 13:51:04;;;;;;;2.72;1.88;;;;;;;;;;5000718;28;20402;-76
2022/07/11 13:53:30;;;;;;;2.80;1.90;;;;;;;;;;4998839;28;20069;-76
2022/07/11 13:55:56;;;;;;;2.40;2.10;;;;;;;;;;5000210;28;20462;-76
2022/07/11 13:58:25;;;;;;;2.30;2.10;;;;;;;;;;4997648;28;20121;-76
2022/07/11 14:00:52;;;;;;;1.95;1.85;;;;;;;;;;4999841;28;20046;-76
2022/07/11 14:03:18;;;;;;;2.70;2.20;;;;;;;;;;5000970;28;20470;-76
2022/07/11 14:05:44;;;;;;;2.85;2.00;;;;;;;;;;5000752;28;20058;-76
2022/07/11 14:08:11;;;;;;;2.05;1.85;;;;;;;;;;5005220;28;20052;-76
2022/07/11 14:10:37;;;;;;;3.58;2.17;;;;;;;;;;5000783;28;20094;-76
2022/07/11 14:13:06;;;;;;;3.08;2.20;;;;;;;;;;5001818;28;20137;-75
2022/07/11 14:15:32;;;;;;;2.75;1.90;;;;;;;;;;5002233;28;20130;-75
2022/07/11 14:17:59;;;;;;;2.78;1.90;;;;;;;;;;4981407;28;20046;-76
2022/07/11 14:20:26;;;;;;;2.85;2.20;;;;;;;;;;4987819;28;20046;-75
2022/07/11 14:22:52;;;;;;;3.30;1.92;;;;;;;;;;5000673;28;20102;-76
2022/07/11 14:25:18;;;;;;;1.92;1.65;;;;;;;;;;4999816;28;20073;-76
2022/07/11 14:27:44;;;;;;;2.28;1.60;;;;;;;;;;4998180;28;20448;-76
2022/07/11 14:30:10;;;;;;;1.80;1.63;;;;;;;;;;4981077;28;20054;-76
2022/07/11 14:32:36;;;;;;;2.60;1.83;;;;;;;;;;4979760;28;20209;-76
2022/07/11 14:35:03;;;;;;;2.05;1.63;;;;;;;;;;4981799;28;20121;-77
2022/07/11 14:37:29;;;;;;;2.97;1.90;;;;;;;;;;4988935;28;20049;-80
2022/07/11 14:39:55;;;;;;;2.28;2.00;;;;;;;;;;5000096;28;20038;-77
2022/07/11 14:42:21;;;;;;;3.35;2.00;;;;;;;;;;5003056;28;20038;-82
2022/07/11 14:44:51;;;;;;;4.18;2.10;;;;;;;;;;5008743;28;20054;-76
2022/07/11 14:47:17;;;;;;;3.50;2.08;;;;;;;;;;5007165;28;20116;-76
2022/07/11 14:49:43;;;;;;;3.58;2.00;;;;;;;;;;5010492;28;20125;-76
2022/07/11 14:52:09;;;;;;;2.60;2.30;;;;;;;;;;5010938;28;20064;-76
2022/07/11 14:54:35;;;;;;;3.47;2.22;;;;;;;;;;5010633;28;20050;-77
2022/07/11 14:57:01;;;;;;;4.70;2.30;;;;;;;;;;5009873;28;20081;-76
2022/07/11 14:59:27;;;;;;;3.97;2.58;;;;;;;;;;5009501;28;20050;-75
2022/07/11 15:01:53;;;;;;;4.00;2.40;;;;;;;;;;5011256;28;20050;-75